Time;durP1;ratioP1;P1;durP2;ratioP2;P2;SDS_P1;SDS_P2;PMS_P1;PMS_P2;Temp;Humidity;BMP_temperature;BMP_pressure;BME280_temperature;BME280_humidity;BME280_pressure;Samples;Min_cycle;Max_cycle;Signal;HPM_P1;HPM_P2
2022/07/20 00:04:31;;;;;;;11.10;6.82;;;17.80;99.90;;;;;;10110996;29;20037;-82
2022/07/20 00:14:51;;;;;;;16.17;7.55;;;17.70;99.90;;;;;;10103864;29;20061;-82
2022/07/20 00:19:51;;;;;;;16.23;7.82;;;17.60;99.90;;;;;;10114795;29;20032;-83
2022/07/20 00:24:52;;;;;;;14.32;7.70;;;17.50;99.90;;;;;;10106588;29;20056;-83
2022/07/20 00:29:52;;;;;;;21.75;9.30;;;17.40;99.90;;;;;;10106974;29;20045;-83
2022/07/20 00:34:53;;;;;;;14.30;8.48;;;17.20;99.90;;;;;;10108625;29;20053;-82
2022/07/20 00:39:53;;;;;;;14.93;8.45;;;17.00;99.90;;;;;;10099378;29;20045;-82
2022/07/20 00:44:54;;;;;;;17.02;7.97;;;17.10;99.90;;;;;;10107630;29;20040;-83
2022/07/20 00:49:54;;;;;;;18.75;8.90;;;17.00;99.90;;;;;;10111255;29;20033;-82
2022/07/20 00:54:55;;;;;;;16.75;8.85;;;16.90;99.90;;;;;;10100803;29;20055;-83
2022/07/20 00:59:56;;;;;;;15.98;8.73;;;16.90;99.90;;;;;;10109476;29;20047;-83
2022/07/20 01:04:56;;;;;;;15.43;8.07;;;16.90;99.90;;;;;;10104278;29;20040;-82
2022/07/20 01:09:57;;;;;;;16.58;8.68;;;16.90;99.90;;;;;;10105166;29;20037;-83
2022/07/20 01:14:57;;;;;;;12.20;6.90;;;16.80;99.90;;;;;;10104993;29;20052;-84
2022/07/20 01:19:58;;;;;;;14.93;8.65;;;16.80;99.90;;;;;;10108461;29;20444;-83
2022/07/20 01:24:58;;;;;;;19.00;8.55;;;16.90;99.90;;;;;;10100000;29;20120;-82
2022/07/20 01:29:59;;;;;;;14.05;8.07;;;16.80;99.90;;;;;;10107497;29;20520;-83
2022/07/20 01:35:00;;;;;;;14.15;7.82;;;16.80;99.90;;;;;;10112359;29;20052;-83
2022/07/20 01:40:00;;;;;;;15.32;8.18;;;16.90;99.90;;;;;;10114109;29;20056;-83
2022/07/20 01:45:01;;;;;;;18.65;8.32;;;16.80;99.90;;;;;;10114453;29;20041;-82
2022/07/20 01:50:01;;;;;;;16.80;8.75;;;16.90;99.90;;;;;;10115518;29;20037;-83
2022/07/20 01:55:03;;;;;;;15.98;8.80;;;16.80;99.90;;;;;;10101909;29;20057;-83
2022/07/20 02:00:07;;;;;;;13.60;9.27;;;16.70;99.90;;;;;;10086979;29;20205;-81
2022/07/20 02:05:09;;;;;;;20.08;9.10;;;16.60;99.90;;;;;;10086397;29;20047;-83
2022/07/20 02:10:11;;;;;;;15.52;8.52;;;16.50;99.90;;;;;;10099570;29;20630;-83
2022/07/20 02:16:14;;;;;;;15.88;8.40;;;16.50;99.90;;;;;;10095388;29;20144;-82
2022/07/20 02:20:33;;;;;;;18.30;9.77;;;16.40;99.90;;;;;;10112038;29;20048;-83
2022/07/20 02:25:36;;;;;;;21.80;11.07;;;16.40;99.90;;;;;;10111957;29;20515;-83
2022/07/20 02:30:38;;;;;;;13.95;8.95;;;16.40;99.90;;;;;;10137603;29;20485;-83
2022/07/20 02:35:39;;;;;;;18.50;9.82;;;16.30;99.90;;;;;;10124753;29;20194;-84
2022/07/20 02:40:39;;;;;;;15.55;9.60;;;16.20;99.90;;;;;;10108303;29;20606;-82
2022/07/20 02:45:40;;;;;;;18.38;10.52;;;16.10;99.90;;;;;;10135325;29;20120;-83
2022/07/20 02:50:42;;;;;;;19.27;10.15;;;16.20;99.90;;;;;;10096386;29;20049;-82
2022/07/20 02:55:43;;;;;;;19.55;11.02;;;16.20;99.90;;;;;;10114001;29;20057;-83
2022/07/20 03:00:44;;;;;;;18.55;10.50;;;16.10;99.90;;;;;;10139749;29;20518;-83
2022/07/20 03:05:44;;;;;;;18.25;9.85;;;16.10;99.90;;;;;;10123644;29;20184;-84
2022/07/20 03:10:45;;;;;;;19.33;10.10;;;16.10;99.90;;;;;;10111262;29;20045;-84
2022/07/20 03:15:45;;;;;;;17.02;9.25;;;16.20;99.90;;;;;;10127824;29;20065;-82
2022/07/20 03:20:46;;;;;;;19.23;10.13;;;16.20;99.90;;;;;;10124720;29;20044;-82
2022/07/20 03:25:46;;;;;;;16.77;9.57;;;16.10;99.90;;;;;;10124827;29;20041;-86
2022/07/20 03:30:47;;;;;;;17.05;10.23;;;16.10;99.90;;;;;;10106374;29;20382;-86
2022/07/20 03:35:48;;;;;;;20.98;11.05;;;16.10;99.90;;;;;;10106178;29;20057;-85
2022/07/20 03:40:48;;;;;;;19.08;10.50;;;16.10;99.90;;;;;;10107974;29;20104;-85
2022/07/20 03:45:49;;;;;;;17.27;10.57;;;16.10;99.90;;;;;;10111249;29;20044;-85
2022/07/20 03:50:50;;;;;;;18.70;10.68;;;16.00;99.90;;;;;;10132411;29;20464;-84
2022/07/20 03:55:51;;;;;;;20.13;9.38;;;16.10;99.90;;;;;;10130826;29;20506;-84
2022/07/20 04:00:51;;;;;;;19.30;10.95;;;16.20;99.90;;;;;;10146105;23;20064;-85
2022/07/20 04:05:52;;;;;;;14.20;9.05;;;16.40;99.90;;;;;;10100395;29;20486;-84
2022/07/20 04:10:52;;;;;;;17.35;10.57;;;16.50;99.90;;;;;;10136541;29;20056;-84
2022/07/20 04:15:53;;;;;;;16.40;9.60;;;16.60;99.90;;;;;;10155058;29;20056;-84
2022/07/20 04:20:54;;;;;;;20.50;10.25;;;16.60;99.90;;;;;;10152270;29;20058;-87
2022/07/20 04:25:54;;;;;;;17.20;9.85;;;16.70;99.90;;;;;;10152886;29;20044;-84
2022/07/20 04:30:55;;;;;;;13.80;8.48;;;16.80;99.90;;;;;;10167377;29;20096;-85
2022/07/20 04:35:55;;;;;;;16.52;9.60;;;17.00;99.90;;;;;;10168310;29;20044;-87
2022/07/20 04:40:56;;;;;;;15.82;9.90;;;17.20;99.90;;;;;;10151702;29;20099;-84
2022/07/20 04:45:57;;;;;;;15.07;8.90;;;17.50;99.90;;;;;;10168004;29;20040;-84
2022/07/20 04:50:57;;;;;;;15.68;8.88;;;17.60;99.90;;;;;;10165442;29;20512;-85
2022/07/20 04:55:58;;;;;;;15.93;10.40;;;17.80;99.90;;;;;;10167690;29;20445;-84
2022/07/20 05:00:59;;;;;;;19.98;13.00;;;18.00;99.90;;;;;;10166555;29;20942;-86
2022/07/20 05:05:59;;;;;;;19.90;11.00;;;18.10;99.90;;;;;;10150789;29;20431;-85
2022/07/20 05:11:00;;;;;;;16.20;9.50;;;18.30;99.90;;;;;;10166257;29;20044;-86
2022/07/20 05:16:01;;;;;;;16.45;8.75;;;18.40;99.90;;;;;;10146980;29;20079;-86
2022/07/20 05:21:02;;;;;;;13.77;7.72;;;18.60;99.90;;;;;;10151684;29;20096;-87
2022/07/20 05:26:03;;;;;;;13.90;7.85;;;18.70;99.90;;;;;;10166308;29;20044;-86
2022/07/20 05:31:04;;;;;;;15.55;8.18;;;18.90;99.90;;;;;;10166931;29;20058;-87
2022/07/20 05:36:38;;;;;;;14.98;7.55;;;19.00;99.90;;;;;;10143029;29;20048;-89
2022/07/20 05:41:39;;;;;;;13.98;8.20;;;19.30;99.90;;;;;;10131614;29;20037;-86
2022/07/20 05:46:39;;;;;;;14.60;8.48;;;19.50;99.90;;;;;;10130147;29;20049;-89
2022/07/20 05:51:40;;;;;;;12.60;7.70;;;19.60;99.90;;;;;;10129797;29;20048;-88
2022/07/20 05:56:40;;;;;;;12.88;7.40;;;19.80;99.90;;;;;;10126825;29;20040;-85
2022/07/20 06:01:43;;;;;;;15.25;8.18;;;20.10;99.90;;;;;;10131273;29;20049;-84
2022/07/20 06:06:44;;;;;;;15.52;8.02;;;20.40;99.90;;;;;;10130698;29;20092;-86
2022/07/20 06:11:45;;;;;;;19.95;8.98;;;20.60;99.90;;;;;;10113525;29;20048;-85
2022/07/20 06:16:45;;;;;;;16.73;7.90;;;20.90;99.90;;;;;;10141724;29;20047;-85
2022/07/20 06:21:46;;;;;;;21.63;8.10;;;21.30;99.90;;;;;;10140796;29;20045;-84
2022/07/20 06:26:47;;;;;;;14.80;7.15;;;21.60;99.90;;;;;;10127313;29;20561;-83
2022/07/20 06:31:47;;;;;;;12.95;6.68;;;21.70;99.90;;;;;;10144937;29;20040;-85
2022/07/20 06:36:48;;;;;;;12.45;6.63;;;21.90;99.90;;;;;;10163904;29;20060;-85
2022/07/20 06:41:49;;;;;;;13.35;6.45;;;22.00;99.90;;;;;;10160403;29;20512;-87
2022/07/20 06:46:49;;;;;;;13.45;6.47;;;22.40;99.90;;;;;;10164464;29;20548;-85
2022/07/20 06:51:50;;;;;;;11.98;6.00;;;22.70;99.90;;;;;;10161342;29;20048;-85
2022/07/20 06:57:17;;;;;;;12.93;5.78;;;23.10;99.90;;;;;;10163916;29;21615;-85
2022/07/20 07:14:20;;;;;;;12.00;5.18;;;25.60;95.40;;;;;;10254933;23;20086;-86
2022/07/20 07:25:46;;;;;;;10.88;5.18;;;28.60;85.80;;;;;;10169785;29;20032;-85
2022/07/20 07:30:49;;;;;;;12.68;5.82;;;29.70;77.80;;;;;;10169760;29;20055;-86
2022/07/20 07:35:56;;;;;;;15.95;5.75;;;30.30;75.00;;;;;;10153315;29;20512;-86
2022/07/20 07:41:28;;;;;;;11.45;4.70;;;30.60;71.80;;;;;;10153541;29;20410;-86
2022/07/20 07:46:29;;;;;;;8.85;4.68;;;31.00;71.60;;;;;;10169433;29;20124;-86
2022/07/20 08:10:14;;;;;;;14.25;5.30;;;30.10;69.50;;;;;;10705050;23;20078;-85
2022/07/20 08:15:15;;;;;;;11.85;4.78;;;30.10;69.30;;;;;;10138260;29;20607;-84
2022/07/20 08:31:18;;;;;;;11.43;5.15;;;30.30;69.50;;;;;;10126017;29;20097;-85
2022/07/20 08:36:19;;;;;;;18.45;5.57;;;30.50;68.80;;;;;;10122334;29;20177;-85
2022/07/20 08:47:27;;;;;;;8.63;4.90;;;30.90;68.50;;;;;;10115425;29;20036;-86
2022/07/20 08:52:27;;;;;;;8.52;5.20;;;31.00;66.70;;;;;;10121427;29;20044;-85
2022/07/20 08:57:47;;;;;;;18.77;15.32;;;31.20;64.30;;;;;;10117183;29;20416;-85
2022/07/20 09:02:57;;;;;;;6.93;4.18;;;31.20;57.90;;;;;;10101830;29;20051;-85
2022/07/20 09:07:59;;;;;;;9.80;4.88;;;31.40;63.70;;;;;;10091396;29;20041;-84
2022/07/20 09:13:04;;;;;;;5.50;3.92;;;31.70;62.20;;;;;;10098753;29;20040;-87
2022/07/20 09:18:10;;;;;;;14.52;4.18;;;31.70;57.90;;;;;;10103461;29;20048;-83
2022/07/20 09:23:14;;;;;;;6.95;3.95;;;32.00;60.70;;;;;;10108717;29;20057;-86
2022/07/20 09:28:35;;;;;;;;;;;32.30;60.90;;;;;;10128545;29;20083;-86
2022/07/20 09:33:35;;;;;;;6.70;3.50;;;32.30;60.30;;;;;;10125830;29;19979;-87
2022/07/20 09:39:06;;;;;;;6.65;3.67;;;32.40;56.20;;;;;;10120757;29;20100;-85
2022/07/20 09:50:27;;;;;;;6.32;3.90;;;32.40;55.10;;;;;;10125934;29;20150;-86
2022/07/20 09:55:30;;;;;;;4.40;2.70;;;32.70;53.90;;;;;;10127132;29;20107;-86
2022/07/20 10:00:32;;;;;;;5.60;3.38;;;32.80;53.30;;;;;;10100796;29;20718;-86
2022/07/20 10:05:36;;;;;;;4.93;3.35;;;33.00;54.40;;;;;;10126974;29;20037;-86
2022/07/20 10:10:36;;;;;;;7.15;3.53;;;32.70;50.90;;;;;;10109141;29;20040;-87
2022/07/20 10:16:01;;;;;;;26.33;11.07;;;32.60;54.50;;;;;;10125732;29;20040;-86
2022/07/20 10:21:30;;;;;;;11.07;4.72;;;32.50;53.30;;;;;;10099396;29;20557;-85
2022/07/20 10:26:32;;;;;;;27.88;8.52;;;32.80;55.80;;;;;;10125666;29;20438;-85
2022/07/20 10:31:53;;;;;;;11.73;5.53;;;33.10;57.40;;;;;;10108363;29;20597;-86
2022/07/20 10:37:26;;;;;;;9.73;4.25;;;33.20;55.60;;;;;;10125454;29;20052;-86
2022/07/20 10:42:32;;;;;;;9.20;5.18;;;32.90;55.80;;;;;;10124939;29;20177;-86
2022/07/20 10:47:42;;;;;;;8.82;4.82;;;32.80;55.20;;;;;;10108778;29;20048;-88
2022/07/20 10:52:42;;;;;;;6.18;3.85;;;32.70;53.80;;;;;;10107561;29;20068;-91
2022/07/20 10:57:43;;;;;;;8.00;4.10;;;32.70;54.40;;;;;;10118407;29;20464;-85
2022/07/20 11:02:44;;;;;;;6.97;3.65;;;32.70;55.10;;;;;;10117632;29;20116;-85
2022/07/20 11:07:44;;;;;;;5.28;3.42;;;32.80;58.60;;;;;;10119399;29;20579;-84
2022/07/20 11:12:54;;;;;;;6.30;3.92;;;33.00;54.60;;;;;;10103773;29;20048;-84
2022/07/20 11:17:55;;;;;;;8.57;3.78;;;32.90;54.90;;;;;;10096239;29;20064;-86
2022/07/20 11:22:57;;;;;;;8.27;3.47;;;33.10;56.50;;;;;;10110311;29;20364;-85
2022/07/20 11:28:02;;;;;;;8.60;3.97;;;33.40;58.80;;;;;;10108160;29;20041;-85
2022/07/20 11:33:02;;;;;;;6.65;4.10;;;33.70;54.00;;;;;;10091643;29;20033;-85
2022/07/20 11:38:03;;;;;;;7.15;4.00;;;33.70;53.50;;;;;;10109377;29;20053;-84
2022/07/20 11:43:14;;;;;;;6.30;3.85;;;33.60;52.80;;;;;;10119783;29;20041;-87
2022/07/20 11:48:17;;;;;;;5.38;3.72;;;33.60;53.30;;;;;;10105659;29;20045;-85
2022/07/20 11:53:28;;;;;;;7.70;4.15;;;33.50;57.70;;;;;;10117526;29;20064;-85
2022/07/20 11:58:33;;;;;;;7.85;3.67;;;33.70;56.80;;;;;;10122424;29;20503;-86
2022/07/20 12:03:37;;;;;;;8.63;4.35;;;33.90;53.60;;;;;;10122984;29;20044;-87
2022/07/20 12:08:38;;;;;;;6.82;4.50;;;33.90;54.10;;;;;;10100859;29;20062;-84
2022/07/20 12:13:50;;;;;;;8.75;4.20;;;33.80;53.50;;;;;;10113639;29;20052;-86
2022/07/20 12:18:52;;;;;;;5.82;4.43;;;33.90;57.20;;;;;;10130164;29;20040;-85
2022/07/20 12:23:54;;;;;;;5.45;3.70;;;33.70;56.00;;;;;;10128884;29;20060;-85
2022/07/20 12:29:15;;;;;;;6.57;3.97;;;33.60;57.70;;;;;;10129604;29;20041;-84
2022/07/20 12:34:16;;;;;;;7.55;4.13;;;33.60;52.90;;;;;;10128452;29;20055;-86
2022/07/20 12:39:36;;;;;;;5.43;3.92;;;33.50;54.30;;;;;;10112030;29;20499;-84
2022/07/20 12:44:37;;;;;;;5.40;3.83;;;33.70;54.00;;;;;;10129011;29;20545;-84
2022/07/20 12:49:38;;;;;;;8.00;3.90;;;34.00;53.40;;;;;;10129640;29;20035;-86
2022/07/20 12:54:39;;;;;;;6.85;4.43;;;34.00;53.20;;;;;;10112944;29;20488;-89
2022/07/20 12:59:40;;;;;;;5.38;3.60;;;34.20;53.80;;;;;;10128351;29;20041;-86
2022/07/20 13:04:40;;;;;;;6.82;3.92;;;34.50;55.40;;;;;;10129253;29;20045;-86
2022/07/20 13:09:42;;;;;;;6.85;4.43;;;34.50;54.40;;;;;;10129083;29;20044;-85
2022/07/20 13:14:42;;;;;;;5.88;4.45;;;34.60;52.20;;;;;;10128107;29;20049;-85
2022/07/20 13:19:43;;;;;;;6.53;3.30;;;34.70;54.80;;;;;;10127492;29;20032;-85
2022/07/20 13:24:43;;;;;;;8.20;4.15;;;34.20;55.00;;;;;;10098265;29;20078;-85
2022/07/20 13:29:44;;;;;;;7.00;4.60;;;34.10;54.50;;;;;;10110983;29;20505;-85
2022/07/20 13:34:45;;;;;;;7.57;4.18;;;34.10;52.10;;;;;;10128423;29;20049;-87
2022/07/20 13:39:45;;;;;;;8.18;4.30;;;33.60;52.00;;;;;;10128303;29;20056;-84
2022/07/20 13:44:46;;;;;;;5.70;3.65;;;33.10;51.20;;;;;;10109454;29;20040;-83
2022/07/20 13:49:46;;;;;;;12.48;5.45;;;33.00;51.30;;;;;;10127342;29;20032;-85
2022/07/20 13:54:47;;;;;;;7.22;3.97;;;33.00;54.20;;;;;;10126737;29;20056;-84
2022/07/20 13:59:47;;;;;;;7.95;4.20;;;32.80;51.70;;;;;;10127819;29;20477;-84
2022/07/20 14:04:48;;;;;;;9.10;4.40;;;32.70;54.60;;;;;;10126944;29;20474;-84
2022/07/20 14:09:49;;;;;;;6.90;4.43;;;32.80;51.90;;;;;;10126308;29;20494;-84
2022/07/20 14:14:49;;;;;;;8.30;4.13;;;32.50;50.50;;;;;;10124799;29;20060;-85
2022/07/20 14:19:50;;;;;;;8.05;4.30;;;32.20;53.30;;;;;;10125231;29;20135;-84
2022/07/20 14:24:50;;;;;;;6.78;3.75;;;32.40;53.10;;;;;;10125758;29;20446;-84
2022/07/20 14:29:51;;;;;;;7.70;4.10;;;32.40;54.90;;;;;;10124688;29;20032;-84
2022/07/20 14:34:52;;;;;;;6.18;3.78;;;32.20;53.00;;;;;;10108811;29;20127;-84
2022/07/20 14:39:53;;;;;;;5.25;3.65;;;32.30;53.10;;;;;;10123773;29;20096;-84
2022/07/20 14:44:53;;;;;;;6.47;3.70;;;32.20;56.20;;;;;;10108690;29;20052;-84
2022/07/20 14:49:54;;;;;;;7.05;4.22;;;32.00;53.90;;;;;;10122018;29;20040;-83
2022/07/20 14:54:54;;;;;;;5.18;3.70;;;31.90;55.60;;;;;;10124104;29;20273;-84
2022/07/20 14:59:57;;;;;;;4.93;3.60;;;31.90;54.80;;;;;;10124958;29;20100;-83
2022/07/20 15:05:00;;;;;;;5.78;3.88;;;31.70;54.00;;;;;;10106139;29;20048;-83
2022/07/20 15:10:02;;;;;;;6.03;4.43;;;31.60;54.50;;;;;;10125340;29;20036;-84
2022/07/20 15:15:04;;;;;;;4.47;3.53;;;31.50;53.70;;;;;;10123951;29;20693;-85
2022/07/20 15:20:05;;;;;;;7.00;4.18;;;31.40;52.90;;;;;;10124782;29;20041;-83
2022/07/20 15:25:06;;;;;;;5.72;4.05;;;31.20;52.90;;;;;;10123590;29;20065;-83
2022/07/20 15:30:08;;;;;;;6.75;4.00;;;31.20;52.90;;;;;;10122618;29;20033;-83
2022/07/20 15:35:08;;;;;;;5.97;4.30;;;31.20;55.40;;;;;;10123752;29;20052;-86
2022/07/20 15:40:10;;;;;;;7.60;4.63;;;31.10;55.10;;;;;;10120365;29;20385;-84
2022/07/20 15:45:11;;;;;;;5.80;4.25;;;31.10;54.50;;;;;;10130520;29;20032;-84
2022/07/20 15:50:14;;;;;;;6.05;3.85;;;31.00;54.40;;;;;;10131304;29;20041;-82
2022/07/20 15:55:15;;;;;;;8.50;4.03;;;30.90;55.20;;;;;;10130992;29;20055;-83
2022/07/20 16:00:16;;;;;;;7.20;4.57;;;30.90;55.20;;;;;;10130117;29;20504;-83
2022/07/20 16:05:17;;;;;;;6.10;4.38;;;30.80;54.00;;;;;;10117967;29;20751;-86
2022/07/20 16:10:18;;;;;;;7.22;4.45;;;30.70;55.70;;;;;;10127723;29;20032;-84
2022/07/20 16:15:18;;;;;;;5.65;3.90;;;30.60;55.30;;;;;;10128631;29;20052;-85
2022/07/20 16:20:19;;;;;;;8.35;4.20;;;30.60;54.70;;;;;;10112986;29;20202;-83
2022/07/20 16:25:19;;;;;;;4.80;4.20;;;30.50;56.70;;;;;;10130254;29;20056;-85
2022/07/20 16:30:21;;;;;;;7.55;4.53;;;30.40;57.90;;;;;;10123328;29;20120;-84
2022/07/20 16:35:21;;;;;;;8.25;4.88;;;30.30;58.10;;;;;;10127748;29;20402;-84
2022/07/20 16:40:22;;;;;;;7.18;4.90;;;30.10;59.30;;;;;;10129244;29;20052;-83
2022/07/20 16:45:22;;;;;;;7.30;4.55;;;30.00;60.60;;;;;;10136050;29;20034;-83
2022/07/20 16:50:24;;;;;;;7.22;4.30;;;29.90;60.50;;;;;;10141374;29;20037;-83
2022/07/20 16:55:24;;;;;;;8.52;5.43;;;29.70;60.20;;;;;;10110633;29;20059;-85
2022/07/20 17:00:25;;;;;;;6.10;4.30;;;29.60;62.60;;;;;;10127502;29;20059;-85
2022/07/20 17:05:26;;;;;;;8.32;4.88;;;29.30;65.70;;;;;;10128790;29;20036;-82
2022/07/20 17:10:26;;;;;;;7.88;5.05;;;29.00;63.60;;;;;;10109926;29;20059;-84
2022/07/20 17:15:28;;;;;;;7.80;4.45;;;28.80;65.50;;;;;;10127566;29;20080;-84
2022/07/20 17:20:29;;;;;;;7.13;4.45;;;28.50;63.10;;;;;;10110890;29;20486;-83
2022/07/20 17:25:30;;;;;;;7.47;4.97;;;28.30;67.70;;;;;;10127843;29;20040;-85
2022/07/20 17:30:30;;;;;;;6.85;4.68;;;27.80;69.50;;;;;;10113185;29;20720;-84
2022/07/20 17:35:31;;;;;;;11.52;5.38;;;27.40;70.00;;;;;;10127341;29;20044;-85
2022/07/20 17:40:32;;;;;;;5.40;4.13;;;27.00;70.70;;;;;;10103954;29;20123;-84
2022/07/20 17:45:32;;;;;;;7.60;4.90;;;26.60;71.60;;;;;;10126799;29;20044;-87
2022/07/20 17:50:33;;;;;;;7.15;4.80;;;26.30;71.30;;;;;;10126799;29;20045;-83
2022/07/20 17:55:33;;;;;;;8.77;4.68;;;26.00;72.90;;;;;;10126332;29;20044;-85
2022/07/20 18:00:34;;;;;;;9.80;5.55;;;25.70;72.70;;;;;;10118230;29;20675;-84
2022/07/20 18:05:35;;;;;;;9.90;6.40;;;25.40;73.70;;;;;;10120053;29;20061;-83
2022/07/20 18:10:36;;;;;;;16.23;11.48;;;25.20;74.50;;;;;;10125971;29;20041;-84
2022/07/20 18:15:36;;;;;;;13.20;8.55;;;25.00;76.70;;;;;;10124649;29;20044;-85
2022/07/20 18:20:37;;;;;;;9.18;7.10;;;24.80;77.40;;;;;;10125313;29;20041;-86
2022/07/20 18:25:43;;;;;;;15.55;8.20;;;24.60;77.60;;;;;;10107128;29;20055;-84
2022/07/20 18:30:44;;;;;;;15.07;9.73;;;24.40;79.40;;;;;;10128626;29;20122;-84
2022/07/20 18:35:46;;;;;;;13.80;8.88;;;24.10;79.30;;;;;;10127353;29;20060;-83
2022/07/20 18:40:47;;;;;;;13.07;8.02;;;24.00;80.00;;;;;;10121831;29;20092;-85
2022/07/20 18:45:57;;;;;;;17.35;13.20;;;23.80;80.90;;;;;;10119862;29;20119;-84
2022/07/20 18:50:58;;;;;;;16.10;7.43;;;23.70;81.00;;;;;;10124835;29;20071;-84
2022/07/20 18:55:59;;;;;;;9.15;6.20;;;23.60;81.30;;;;;;10124146;29;20052;-86
2022/07/20 19:00:59;;;;;;;7.93;5.65;;;23.50;81.40;;;;;;10124027;29;20037;-84
2022/07/20 19:06:02;;;;;;;8.85;5.28;;;23.30;82.50;;;;;;10125140;29;20044;-85
2022/07/20 19:11:03;;;;;;;8.43;5.35;;;23.20;81.80;;;;;;10124972;29;20437;-84
2022/07/20 19:16:04;;;;;;;8.05;5.88;;;23.10;81.60;;;;;;10129289;29;20048;-85
2022/07/20 19:21:05;;;;;;;11.73;5.78;;;23.00;82.20;;;;;;10133771;29;20552;-85
2022/07/20 19:26:06;;;;;;;10.55;5.47;;;22.90;82.00;;;;;;10114844;29;20059;-83
2022/07/20 19:31:07;;;;;;;10.15;5.53;;;22.80;82.40;;;;;;10130939;29;20036;-83
2022/07/20 19:36:08;;;;;;;10.35;6.20;;;22.70;82.90;;;;;;10130804;29;20091;-85
2022/07/20 19:41:09;;;;;;;16.77;6.90;;;22.70;83.60;;;;;;10131835;29;20040;-85
2022/07/20 19:46:10;;;;;;;11.25;6.00;;;22.70;83.60;;;;;;10130695;29;20112;-84
2022/07/20 19:51:11;;;;;;;8.65;6.05;;;22.60;83.50;;;;;;10132646;29;20124;-81
2022/07/20 19:56:13;;;;;;;9.82;6.05;;;22.50;84.20;;;;;;10130087;29;20578;-82
2022/07/20 20:01:14;;;;;;;10.82;6.60;;;22.40;84.20;;;;;;10131170;29;20786;-82
2022/07/20 20:06:15;;;;;;;9.57;6.82;;;22.40;84.60;;;;;;10129126;29;20078;-81
2022/07/20 20:11:16;;;;;;;8.85;6.07;;;22.30;84.60;;;;;;10130232;29;20049;-82
2022/07/20 20:16:17;;;;;;;10.25;7.15;;;22.40;84.50;;;;;;10108435;29;20048;-82
2022/07/20 20:21:18;;;;;;;11.88;7.18;;;22.30;85.40;;;;;;10115721;29;20044;-82
2022/07/20 20:26:18;;;;;;;12.52;7.45;;;22.20;85.90;;;;;;10123511;29;20135;-82
2022/07/20 20:31:19;;;;;;;11.40;7.22;;;22.10;85.70;;;;;;10124782;29;20504;-82
2022/07/20 20:36:19;;;;;;;10.90;6.95;;;22.00;85.80;;;;;;10099016;29;20060;-83
2022/07/20 20:41:20;;;;;;;15.95;7.38;;;22.00;85.20;;;;;;10130133;29;20401;-83
2022/07/20 20:46:21;;;;;;;11.88;6.97;;;22.00;85.20;;;;;;10126120;29;20498;-82
2022/07/20 20:51:21;;;;;;;9.30;6.60;;;22.00;85.60;;;;;;10114930;29;20705;-83
2022/07/20 20:56:25;;;;;;;10.90;6.63;;;21.80;86.50;;;;;;10103955;29;20152;-84
2022/07/20 21:01:28;;;;;;;10.35;6.22;;;21.60;88.10;;;;;;10080379;29;20029;-82
2022/07/20 21:06:29;;;;;;;8.88;6.40;;;21.40;88.30;;;;;;10091887;29;20119;-82
2022/07/20 21:11:36;;;;;;;12.20;6.72;;;21.30;89.30;;;;;;10102852;29;20049;-84
2022/07/20 21:16:37;;;;;;;11.20;6.85;;;21.10;90.30;;;;;;10107315;29;20048;-83
2022/07/20 21:21:38;;;;;;;11.73;7.35;;;20.90;90.70;;;;;;10127888;29;20067;-83
2022/07/20 21:26:38;;;;;;;11.85;7.60;;;20.80;91.10;;;;;;10128546;29;20401;-85
2022/07/20 21:31:39;;;;;;;10.02;6.93;;;20.60;91.90;;;;;;10106652;29;20045;-83
2022/07/20 21:36:41;;;;;;;10.55;6.75;;;20.50;92.60;;;;;;10090649;29;20112;-83
2022/07/20 21:41:44;;;;;;;10.77;6.88;;;20.40;92.60;;;;;;10092320;29;20033;-83
2022/07/20 21:46:46;;;;;;;13.95;6.63;;;20.40;92.70;;;;;;10093930;29;20045;-84
2022/07/20 21:51:46;;;;;;;12.35;6.35;;;20.30;92.80;;;;;;10092732;29;20504;-84
2022/07/20 21:56:47;;;;;;;10.80;6.00;;;20.20;93.00;;;;;;10093701;29;20041;-84
2022/07/20 22:01:47;;;;;;;11.10;6.40;;;20.20;92.90;;;;;;10109633;29;20044;-84
2022/07/20 22:06:48;;;;;;;10.90;6.43;;;20.20;93.90;;;;;;10126399;29;20123;-85
2022/07/20 22:11:49;;;;;;;8.98;6.38;;;19.90;95.00;;;;;;10126368;29;20040;-85
2022/07/20 22:16:50;;;;;;;9.52;6.50;;;20.00;94.90;;;;;;10127107;29;20091;-83
2022/07/20 22:21:50;;;;;;;10.45;5.95;;;20.10;95.60;;;;;;10126038;29;20518;-84
2022/07/20 22:26:51;;;;;;;9.32;5.70;;;20.20;95.70;;;;;;10125249;29;20037;-84
2022/07/20 22:31:51;;;;;;;9.85;6.28;;;20.20;95.80;;;;;;10125591;29;20482;-83
2022/07/20 22:36:52;;;;;;;9.57;6.13;;;20.20;96.10;;;;;;10125779;29;20401;-84
2022/07/20 22:41:53;;;;;;;9.85;6.38;;;20.10;96.30;;;;;;10109045;29;20055;-83
2022/07/20 22:46:53;;;;;;;8.73;6.07;;;20.00;96.40;;;;;;10122538;29;20055;-84
2022/07/20 22:51:54;;;;;;;10.13;6.72;;;19.90;97.20;;;;;;10114464;29;20745;-83
2022/07/20 23:02:14;;;;;;;8.88;5.72;;;19.70;97.50;;;;;;10125552;29;20037;-84
2022/07/20 23:07:14;;;;;;;10.10;6.57;;;19.70;98.10;;;;;;10125546;29;20446;-84
2022/07/20 23:12:15;;;;;;;8.23;6.32;;;19.60;98.60;;;;;;10124947;29;20041;-85
2022/07/20 23:17:16;;;;;;;10.38;6.47;;;19.60;99.00;;;;;;10108572;29;20048;-86
2022/07/20 23:22:17;;;;;;;10.13;6.57;;;19.60;99.90;;;;;;10124150;29;20505;-85
2022/07/20 23:27:18;;;;;;;10.98;7.05;;;19.50;99.90;;;;;;10123995;29;20049;-88
2022/07/20 23:32:18;;;;;;;10.57;6.70;;;19.30;99.90;;;;;;10124932;29;20048;-85
2022/07/20 23:37:19;;;;;;;7.18;5.55;;;19.10;99.90;;;;;;10112338;29;20064;-84
2022/07/20 23:42:19;;;;;;;12.75;8.00;;;19.10;99.90;;;;;;10124821;29;20048;-84
2022/07/20 23:47:20;;;;;;;9.10;7.03;;;19.20;99.90;;;;;;10124901;29;20609;-84
2022/07/20 23:52:21;;;;;;;9.80;6.30;;;19.40;99.90;;;;;;10123565;29;20119;-84
2022/07/20 23:57:21;;;;;;;9.50;6.25;;;19.70;99.90;;;;;;10116868;29;20044;-84
